Time;durP1;ratioP1;P1;durP2;ratioP2;P2;SDS_P1;SDS_P2;PMS_P1;PMS_P2;Temp;Humidity;BMP_temperature;BMP_pressure;BME280_temperature;BME280_humidity;BME280_pressure;Samples;Min_cycle;Max_cycle;Signal;HPM_P1;HPM_P2
2022/09/14 07:24:38;;;;;;;6.43;3.45;;;;;;;19.37;90.28;95611.00;2083012;28;20578;-67
2022/09/14 07:25:41;;;;;;;6.05;3.45;;;;;;;19.67;89.30;95619.63;2081051;28;20224;-67
2022/09/14 07:26:42;;;;;;;7.43;3.28;;;;;;;20.02;89.31;95622.44;2082604;28;20208;-67
2022/09/14 07:27:43;;;;;;;5.13;2.97;;;;;;;20.25;87.66;95629.94;2080543;28;20250;-68
2022/09/14 07:28:48;;;;;;;6.32;2.75;;;;;;;20.33;86.51;95628.19;2074611;28;20221;-68
2022/09/14 07:29:50;;;;;;;6.30;2.95;;;;;;;20.35;86.36;95625.38;2070589;28;20208;-67
2022/09/14 07:30:52;;;;;;;4.70;2.42;;;;;;;20.39;85.95;95635.53;2077928;28;20243;-67
2022/09/14 07:31:59;;;;;;;7.35;3.38;;;;;;;20.67;85.19;95629.22;2077179;28;20197;-68
2022/09/14 07:33:00;;;;;;;3.83;2.55;;;;;;;20.67;84.97;95627.44;2088018;28;20666;-67
2022/09/14 07:43:59;;;;;;;3.90;1.87;;;;;;;21.99;79.46;95630.63;2059311;27;1302761;-70
2022/09/14 07:45:01;;;;;;;5.82;2.60;;;;;;;21.97;79.63;95637.94;2103692;28;20967;-67
2022/09/14 07:46:03;;;;;;;7.20;2.33;;;;;;;22.16;79.50;95638.63;2103486;28;20234;-67
2022/09/14 07:47:05;;;;;;;5.13;2.40;;;;;;;21.94;79.46;95625.00;2103593;28;20789;-67
2022/09/14 07:48:07;;;;;;;6.30;1.90;;;;;;;22.16;79.19;95641.28;2103678;28;20194;-67
2022/09/14 07:49:09;;;;;;;4.50;2.20;;;;;;;21.95;79.27;95652.38;2099532;28;20222;-68
2022/09/14 07:50:14;;;;;;;8.05;2.70;;;;;;;22.04;79.46;95645.25;2094665;28;20195;-70
2022/09/14 07:51:16;;;;;;;9.88;2.28;;;;;;;22.24;78.02;95643.94;2088521;28;20200;-70
2022/09/14 07:52:18;;;;;;;4.00;2.35;;;;;;;22.38;78.17;95655.75;2103091;28;20222;-71
2022/09/14 08:00:25;;;;;;;4.28;2.03;;;;;;;22.81;76.32;95656.41;2109590;28;20271;-69
2022/09/14 08:01:28;;;;;;;7.88;2.28;;;;;;;22.81;76.33;95647.59;2109177;28;20214;-69
2022/09/14 08:17:03;;;;;;;6.43;2.15;;;;;;;22.50;78.03;95677.56;2114667;28;20427;-67
2022/09/14 08:18:04;;;;;;;7.37;3.00;;;;;;;22.32;77.01;95664.38;2072919;28;1244942;-67
2022/09/14 08:19:11;;;;;;;5.30;2.47;;;;;;;21.79;78.33;95614.16;2123686;27;20699;-67
2022/09/14 08:20:12;;;;;;;8.70;2.17;;;;;;;22.16;78.09;95689.94;2126053;27;20584;-67
2022/09/14 08:21:16;;;;;;;5.82;2.25;;;;;;;22.02;78.33;95691.44;2127146;27;20193;-67
2022/09/14 08:22:17;;;;;;;7.50;2.60;;;;;;;21.83;79.75;95700.50;2122908;27;20320;-67
2022/09/14 08:23:19;;;;;;;5.20;2.13;;;;;;;21.79;80.03;95695.69;2123205;27;20644;-68
2022/09/14 08:24:21;;;;;;;6.65;2.10;;;;;;;21.63;80.68;95697.28;2120348;27;20288;-68
2022/09/14 08:25:22;;;;;;;9.77;2.08;;;;;;;21.60;80.99;95702.94;2120620;27;20225;-68
2022/09/14 08:26:26;;;;;;;5.20;2.22;;;;;;;21.46;80.74;95706.16;2122010;27;20198;-68
2022/09/14 08:41:57;;;;;;;12.27;3.00;;;;;;;20.64;84.11;95720.53;2091900;28;20571;-64
2022/09/14 08:43:02;;;;;;;5.15;2.67;;;;;;;20.69;84.03;95714.78;2088071;28;20224;-64
2022/09/14 08:44:11;;;;;;;6.05;2.97;;;;;;;20.73;84.13;95725.97;2082225;28;20240;-65
2022/09/14 08:45:15;;;;;;;5.55;3.15;;;;;;;20.73;83.93;95721.47;2079152;28;20269;-64
2022/09/14 08:46:37;;;;;;;11.93;2.90;;;;;;;20.85;83.15;95730.03;2082319;28;20200;-64
2022/09/14 08:47:40;;;;;;;7.78;3.33;;;;;;;20.90;82.95;95716.28;2080965;28;20243;-65
2022/09/14 08:48:48;;;;;;;4.72;2.90;;;;;;;21.06;82.38;95734.16;2079730;28;20866;-64
2022/09/14 08:49:50;;;;;;;8.65;2.85;;;;;;;21.61;81.16;95725.00;2081174;28;20205;-64
2022/09/14 08:50:52;;;;;;;8.52;2.90;;;;;;;21.46;81.12;95722.09;2080727;28;20625;-64
2022/09/14 08:51:54;;;;;;;6.57;2.80;;;;;;;21.59;81.16;95729.66;2079406;28;20311;-64
2022/09/14 08:52:58;;;;;;;7.80;2.75;;;;;;;21.71;80.69;95725.69;2077527;28;20607;-64
2022/09/14 09:01:19;;;;;;;9.38;2.92;;;;;;;22.70;75.95;95709.94;2091108;28;20574;-63
2022/09/14 09:02:43;;;;;;;4.10;2.33;;;;;;;23.46;74.83;95710.53;2089804;28;20200;-64
2022/09/14 09:04:06;;;;;;;4.32;2.20;;;;;;;23.33;73.98;95686.25;2086226;28;20293;-64
2022/09/14 09:11:55;;;;;;;7.35;3.20;;;;;;;24.22;70.56;95707.34;2081608;28;20267;-64
2022/09/14 09:13:00;;;;;;;5.50;2.00;;;;;;;24.26;70.53;95716.66;2084010;28;20199;-64
2022/09/14 09:14:14;;;;;;;6.38;1.90;;;;;;;24.53;70.55;95721.63;2082648;28;20251;-64
2022/09/14 09:15:23;;;;;;;5.45;2.25;;;;;;;24.64;68.94;95709.72;2082368;28;20291;-64
2022/09/14 09:16:27;;;;;;;4.40;1.98;;;;;;;24.45;70.18;95723.38;2083011;28;20704;-63
2022/09/14 09:17:42;;;;;;;4.53;2.00;;;;;;;24.83;69.45;95732.44;2082300;28;20233;-64
2022/09/14 09:18:48;;;;;;;6.10;2.33;;;;;;;24.40;70.20;95714.22;2083020;28;20306;-64
2022/09/14 09:19:53;;;;;;;3.83;1.95;;;;;;;24.27;71.50;95736.16;2083032;28;20197;-64
2022/09/14 09:21:00;;;;;;;5.57;2.20;;;;;;;23.97;71.99;95733.31;2083181;28;20299;-63
2022/09/14 09:22:05;;;;;;;6.07;2.03;;;;;;;23.51;72.71;95739.31;2082807;28;20659;-64
2022/09/14 09:29:58;;;;;;;6.18;2.30;;;;;;;24.76;69.21;95717.16;2082792;28;20313;-64
2022/09/14 09:31:05;;;;;;;5.82;2.10;;;;;;;24.62;68.68;95716.06;2083729;28;20224;-64
2022/09/14 09:32:21;;;;;;;8.18;2.10;;;;;;;24.62;68.66;95702.72;2083843;28;20226;-65
2022/09/14 09:33:25;;;;;;;7.90;2.50;;;;;;;24.51;69.37;95713.81;2082627;28;20231;-64
2022/09/14 09:34:28;;;;;;;4.38;1.88;;;;;;;24.05;70.73;95706.63;2083638;28;20220;-64
2022/09/14 09:35:31;;;;;;;4.72;2.05;;;;;;;23.78;71.83;95702.56;2083521;28;20197;-63
2022/09/14 09:36:37;;;;;;;4.57;1.80;;;;;;;24.26;71.31;95705.16;2083315;28;20225;-64
2022/09/14 09:37:42;;;;;;;4.07;1.90;;;;;;;24.52;69.35;95707.47;2083866;28;20283;-63
2022/09/14 09:38:43;;;;;;;4.90;2.10;;;;;;;24.88;67.93;95709.53;2081917;28;20606;-64
2022/09/14 09:39:45;;;;;;;7.25;1.58;;;;;;;24.50;68.63;95701.47;2084313;28;20220;-64
2022/09/14 09:41:24;;;;;;;4.90;1.88;;;;;;;24.85;68.72;95701.91;2082733;28;20550;-63
2022/09/14 09:42:26;;;;;;;4.80;2.05;;;;;;;25.10;66.53;95683.81;2080176;28;20284;-64
2022/09/14 09:43:28;;;;;;;8.35;2.30;;;;;;;24.84;67.95;95688.72;2083358;28;20228;-63
2022/09/14 09:45:00;;;;;;;6.03;1.80;;;;;;;25.33;65.60;95688.22;2083219;28;20588;-63
2022/09/14 09:46:06;;;;;;;4.68;1.73;;;;;;;25.69;65.42;95684.81;2083573;28;20831;-64
2022/09/14 09:47:08;;;;;;;11.80;2.00;;;;;;;25.61;64.57;95676.91;2091566;28;20213;-64
2022/09/14 09:48:15;;;;;;;4.82;2.28;;;;;;;25.73;64.28;95679.94;2090924;28;20703;-64
2022/09/14 09:49:23;;;;;;;6.75;2.20;;;;;;;25.68;64.98;95667.13;2082903;28;20244;-63
2022/09/14 09:50:25;;;;;;;4.72;1.80;;;;;;;25.90;64.51;95673.34;2081530;28;20668;-63
2022/09/14 09:51:29;;;;;;;7.57;2.42;;;;;;;26.36;63.35;95666.03;2082957;28;20251;-63
2022/09/14 09:59:26;;;;;;;8.88;2.00;;;;;;;26.35;62.39;95659.03;2082655;28;20248;-63
2022/09/14 10:00:30;;;;;;;5.57;1.73;;;;;;;26.59;61.97;95654.28;2082589;28;20261;-64
2022/09/14 10:01:34;;;;;;;7.85;2.17;;;;;;;26.58;61.64;95656.16;2084126;28;20208;-63
2022/09/14 10:02:40;;;;;;;7.78;2.08;;;;;;;26.28;61.46;95661.63;2082356;28;20611;-64
2022/09/14 10:03:41;;;;;;;4.43;1.80;;;;;;;25.98;62.46;95659.03;2082379;28;20227;-63
2022/09/14 10:05:07;;;;;;;7.05;1.90;;;;;;;26.19;62.39;95660.09;2083854;28;20714;-63
2022/09/14 10:06:11;;;;;;;4.20;1.95;;;;;;;26.21;62.27;95658.91;2082925;28;20239;-63
2022/09/14 10:07:20;;;;;;;4.30;1.60;;;;;;;26.39;62.50;95660.31;2084288;28;20284;-63
2022/09/14 10:08:22;;;;;;;5.22;1.50;;;;;;;26.68;61.95;95659.31;2083548;28;20277;-64
2022/09/14 10:09:28;;;;;;;6.30;2.03;;;;;;;26.50;61.31;95662.47;2082338;28;20284;-64
2022/09/14 10:10:33;;;;;;;5.72;1.80;;;;;;;26.48;61.50;95656.47;2084046;28;20358;-63
2022/09/14 10:11:36;;;;;;;12.70;2.03;;;;;;;26.08;60.98;95656.09;2083777;28;20296;-63
2022/09/14 10:12:44;;;;;;;4.80;1.50;;;;;;;25.43;63.40;95655.91;2078655;28;20204;-63
2022/09/14 10:13:46;;;;;;;7.70;2.45;;;;;;;25.10;65.24;95667.78;2084091;28;20307;-63
2022/09/14 10:14:47;;;;;;;4.40;2.10;;;;;;;24.76;65.93;95657.63;2093007;28;20202;-64
2022/09/14 10:15:49;;;;;;;6.70;2.20;;;;;;;24.53;67.04;95634.44;2093503;28;20652;-63
2022/09/14 10:16:51;;;;;;;6.18;2.30;;;;;;;24.16;67.26;95659.22;2077082;28;20232;-63
2022/09/14 10:18:11;;;;;;;5.53;1.70;;;;;;;24.26;68.23;95652.66;2077237;28;20250;-63
2022/09/14 10:19:26;;;;;;;5.82;1.83;;;;;;;24.65;67.01;95656.19;2078967;28;20299;-63
2022/09/14 10:20:28;;;;;;;3.72;1.75;;;;;;;24.61;67.46;95637.00;2079174;28;20236;-63
2022/09/14 10:21:30;;;;;;;4.38;1.75;;;;;;;24.53;66.56;95645.09;2079331;28;20344;-63
2022/09/14 10:22:33;;;;;;;8.38;1.85;;;;;;;24.47;67.35;95645.81;2086157;28;20235;-63
2022/09/14 10:23:37;;;;;;;5.70;2.05;;;;;;;24.55;68.29;95643.06;2084417;28;20672;-63
2022/09/14 10:24:39;;;;;;;3.22;2.00;;;;;;;24.73;67.96;95633.94;2079579;28;20290;-62
2022/09/14 10:25:40;;;;;;;6.47;2.15;;;;;;;24.70;67.76;95626.31;2080298;28;20318;-63
2022/09/14 10:26:42;;;;;;;5.50;1.80;;;;;;;24.82;67.10;95640.84;2077267;28;20251;-62
2022/09/14 10:27:48;;;;;;;5.22;2.15;;;;;;;25.01;66.43;95623.47;2077590;28;20668;-62
2022/09/14 10:28:50;;;;;;;4.90;1.60;;;;;;;24.96;65.36;95622.38;2077339;28;20326;-62
2022/09/14 10:29:54;;;;;;;7.28;2.03;;;;;;;25.34;64.84;95627.59;2078943;28;20775;-62
2022/09/14 10:31:14;;;;;;;4.95;1.60;;;;;;;25.90;63.11;95630.56;2082445;28;20224;-62
2022/09/14 10:32:24;;;;;;;4.45;1.67;;;;;;;26.15;62.61;95624.88;2081765;28;20212;-63
2022/09/14 10:33:26;;;;;;;12.15;1.90;;;;;;;26.17;61.05;95611.31;2077460;28;20832;-62
2022/09/14 10:34:31;;;;;;;5.45;1.80;;;;;;;26.02;60.52;95611.34;2076391;28;20244;-62
2022/09/14 10:35:49;;;;;;;4.35;1.75;;;;;;;26.16;60.58;95604.31;2079425;28;20224;-62
2022/09/14 10:37:03;;;;;;;4.53;1.33;;;;;;;26.22;60.85;95606.22;2077293;28;20237;-62
2022/09/14 10:38:19;;;;;;;7.88;2.15;;;;;;;26.31;60.58;95609.56;2076056;28;20315;-63
2022/09/14 10:39:26;;;;;;;5.78;2.03;;;;;;;26.29;60.44;95604.44;2077513;28;20312;-62
2022/09/14 10:40:37;;;;;;;10.13;4.45;;;;;;;26.33;60.93;95603.00;2077690;28;20284;-62
2022/09/14 10:42:00;;;;;;;8.27;3.17;;;;;;;26.46;60.88;95607.69;2077653;28;20256;-62
2022/09/14 10:43:27;;;;;;;4.63;1.80;;;;;;;26.60;61.22;95605.09;2076120;28;20236;-62
2022/09/14 10:44:47;;;;;;;4.78;1.85;;;;;;;27.16;58.00;95599.72;2076959;28;20292;-62
2022/09/14 10:45:51;;;;;;;9.35;1.73;;;;;;;27.01;58.46;95591.81;2075446;28;20235;-62
2022/09/14 10:47:21;;;;;;;4.35;2.05;;;;;;;27.13;57.46;95589.38;2077332;28;20259;-63
2022/09/14 10:48:42;;;;;;;6.47;1.95;;;;;;;27.61;56.47;95596.63;2077872;28;20232;-62
2022/09/14 10:50:24;;;;;;;3.20;1.52;;;;;;;27.68;56.75;95594.81;2076192;28;20193;-64
2022/09/14 10:51:39;;;;;;;3.83;1.70;;;;;;;27.81;55.22;95587.84;2076149;28;20644;-63
2022/09/14 10:53:08;;;;;;;4.53;1.52;;;;;;;27.77;56.47;95579.38;2077516;28;20193;-63
2022/09/14 10:54:22;;;;;;;6.15;1.48;;;;;;;28.03;54.99;95572.44;2077441;28;20312;-64
2022/09/14 10:55:42;;;;;;;5.55;1.50;;;;;;;27.92;54.81;95575.69;2079394;28;20224;-64
2022/09/14 11:03:32;;;;;;;7.13;1.60;;;;;;;26.85;56.88;95558.13;2076347;28;20229;-63
2022/09/14 11:04:40;;;;;;;5.15;1.63;;;;;;;26.47;56.98;95571.03;2077067;28;20239;-64
2022/09/14 11:05:50;;;;;;;4.05;1.52;;;;;;;26.31;57.13;95564.09;2078399;28;20327;-64
2022/09/14 11:07:31;;;;;;;5.10;1.40;;;;;;;26.98;56.23;95564.59;2076628;28;20712;-63
2022/09/14 11:08:42;;;;;;;8.40;1.80;;;;;;;27.61;54.51;95569.81;2072162;28;20286;-62
2022/09/14 11:10:05;;;;;;;8.23;1.67;;;;;;;26.58;56.15;95562.47;2078769;28;20280;-62
2022/09/14 11:11:42;;;;;;;2.60;1.40;;;;;;;27.19;55.50;95561.00;2076841;28;20196;-62
2022/09/14 11:13:18;;;;;;;4.47;1.48;;;;;;;28.06;53.50;95564.00;2079328;28;20208;-63
2022/09/14 11:14:57;;;;;;;3.63;1.15;;;;;;;28.67;51.82;95554.91;2076635;28;20248;-62
2022/09/14 11:21:07;;;;;;;6.97;1.45;;;;;;;29.78;49.65;95560.31;2079084;28;20213;-61
2022/09/14 11:22:24;;;;;;;5.38;1.40;;;;;;;29.96;49.17;95562.31;2078911;28;20288;-61
2022/09/14 11:24:07;;;;;;;4.28;1.40;;;;;;;29.37;50.09;95561.56;2076637;28;20296;-62
2022/09/14 11:25:23;;;;;;;9.15;1.40;;;;;;;27.72;52.55;95554.19;2059263;28;20289;-62
2022/09/14 11:26:35;;;;;;;6.15;1.70;;;;;;;26.75;55.07;95560.34;2077708;28;20668;-62
2022/09/14 11:27:56;;;;;;;4.60;1.20;;;;;;;26.13;57.48;95552.03;2077615;28;20199;-61
2022/09/14 11:29:12;;;;;;;5.10;1.92;;;;;;;25.59;58.87;95550.66;2078915;28;20248;-62
2022/09/14 11:30:17;;;;;;;8.45;2.30;;;;;;;25.69;59.00;95543.16;2078845;28;20197;-62
2022/09/14 11:31:27;;;;;;;4.10;1.60;;;;;;;25.58;59.14;95543.66;2076533;28;20288;-61
2022/09/14 11:32:44;;;;;;;38.53;24.77;;;;;;;25.62;59.49;95555.59;2080971;28;20251;-62
2022/09/14 11:33:57;;;;;;;25.63;14.80;;;;;;;25.37;59.72;95533.75;2077012;28;20248;-62
2022/09/14 11:35:26;;;;;;;5.60;1.83;;;;;;;25.13;60.05;95573.09;2076831;28;20232;-63
2022/09/14 11:36:32;;;;;;;3.10;1.80;;;;;;;25.01;60.72;95550.56;2078796;28;20334;-62
2022/09/14 11:37:54;;;;;;;4.40;1.83;;;;;;;24.94;61.12;95547.81;2075762;28;20681;-62
2022/09/14 11:39:03;;;;;;;13.13;1.60;;;;;;;24.47;62.10;95533.78;2074101;28;20307;-62
2022/09/14 11:40:18;;;;;;;5.80;1.70;;;;;;;24.57;62.19;95558.34;2076540;28;20212;-63
2022/09/14 11:41:20;;;;;;;6.72;2.20;;;;;;;24.44;62.86;95555.47;2077389;28;20795;-62
2022/09/14 11:42:28;;;;;;;6.18;1.75;;;;;;;24.31;63.14;95553.41;2075999;28;20243;-62
2022/09/14 11:43:42;;;;;;;4.70;1.17;;;;;;;24.37;63.32;95550.03;2075768;28;20235;-62
2022/09/14 11:44:45;;;;;;;2.95;1.25;;;;;;;24.42;63.08;95554.84;2075844;28;20214;-62
2022/09/14 11:57:06;;;;;;;4.85;1.40;;;;;;;23.89;64.21;95562.75;2075919;28;20172;-63
2022/09/14 11:58:19;;;;;;;3.15;1.35;;;;;;;23.87;64.39;95564.75;2076059;28;20293;-62
2022/09/14 11:59:34;;;;;;;4.65;1.83;;;;;;;23.75;64.48;95556.34;2077525;28;20383;-63
2022/09/14 12:00:57;;;;;;;3.58;1.55;;;;;;;23.80;64.36;95569.97;2077469;28;20235;-63
2022/09/14 12:02:21;;;;;;;5.35;1.60;;;;;;;23.79;64.65;95577.16;2075642;28;20244;-63
2022/09/14 12:10:19;;;;;;;9.05;5.45;;;;;;;23.42;65.33;95560.03;2075969;28;20272;-64
2022/09/14 12:11:37;;;;;;;11.45;6.55;;;;;;;23.38;64.96;95574.72;2076453;28;20555;-63
2022/09/14 12:12:41;;;;;;;8.95;4.78;;;;;;;23.41;65.09;95573.53;2075997;28;20620;-65
2022/09/14 12:13:43;;;;;;;4.63;1.73;;;;;;;23.25;64.80;95566.44;2075511;28;20236;-63
2022/09/14 15:15:11;;;;;;;5.63;1.47;;;;;;;18.22;90.95;95572.44;1939278;27;5202402;-73
2022/09/14 15:16:13;;;;;;;4.20;1.20;;;;;;;18.03;90.10;95549.53;2124561;27;20603;-73
2022/09/14 15:17:15;;;;;;;4.55;1.05;;;;;;;18.10;89.93;95548.00;2124705;27;20205;-70
2022/09/14 15:18:17;;;;;;;4.70;1.90;;;;;;;18.08;91.24;95540.25;2123382;27;20670;-74
2022/09/14 15:19:18;;;;;;;3.80;2.45;;;;;;;18.26;90.62;95552.72;2123571;27;20251;-75
2022/09/14 15:20:21;;;;;;;3.63;1.40;;;;;;;18.39;90.51;95544.47;2124573;27;20550;-74
2022/09/14 15:21:22;;;;;;;6.63;1.48;;;;;;;18.43;89.26;95540.56;2124306;27;20235;-74
2022/09/14 15:22:24;;;;;;;2.05;1.33;;;;;;;18.49;88.30;95541.81;2122535;27;20726;-75
2022/09/14 15:40:38;;;;;;;3.35;0.95;;;;;;;19.08;82.84;95469.16;2094263;27;20567;-69
2022/09/14 15:41:45;;;;;;;4.95;1.40;;;;;;;19.68;79.79;95494.19;2093027;28;20609;-69
2022/09/14 15:42:46;;;;;;;4.80;1.00;;;;;;;19.87;79.42;95500.28;2093285;28;20795;-69
2022/09/14 15:43:48;;;;;;;2.40;0.80;;;;;;;19.78;80.04;95517.91;2080033;28;20245;-68
2022/09/14 15:44:50;;;;;;;5.15;1.50;;;;;;;19.79;79.00;95495.75;2070173;28;20628;-70
2022/09/14 15:45:52;;;;;;;3.53;0.90;;;;;;;19.84;78.38;95492.66;2079081;28;20288;-71
2022/09/14 15:46:54;;;;;;;2.70;0.90;;;;;;;19.87;77.45;95514.38;2077504;28;20267;-71
2022/09/14 15:47:56;;;;;;;2.97;0.98;;;;;;;19.66;77.72;95527.09;2073188;28;20429;-68
2022/09/14 15:48:58;;;;;;;1.88;1.08;;;;;;;19.27;79.87;95520.25;2072574;28;20268;-71
2022/09/14 15:49:59;;;;;;;3.28;1.27;;;;;;;19.19;78.70;95485.78;2070679;28;20190;-69
2022/09/14 15:51:09;;;;;;;4.03;1.27;;;;;;;19.22;80.08;95499.56;2078536;28;20559;-69
2022/09/14 15:52:11;;;;;;;2.35;0.93;;;;;;;18.80;81.12;95502.69;2078348;28;20535;-71
2022/09/14 15:53:15;;;;;;;1.40;0.80;;;;;;;18.71;83.23;95507.03;2078409;28;20204;-73
2022/09/14 15:54:21;;;;;;;3.03;1.65;;;;;;;18.61;82.32;95500.97;2076259;28;20305;-72
2022/09/14 15:55:23;;;;;;;3.75;1.00;;;;;;;18.69;83.43;95500.25;2072938;28;20286;-72
2022/09/14 15:56:24;;;;;;;1.92;1.02;;;;;;;18.60;83.79;95499.31;2072767;28;20599;-70
2022/09/14 15:57:26;;;;;;;1.92;0.93;;;;;;;18.57;83.53;95489.84;2075945;28;20228;-70
2022/09/14 15:58:29;;;;;;;2.47;0.95;;;;;;;18.48;85.21;95474.06;2075286;28;20554;-70
2022/09/14 15:59:31;;;;;;;2.17;1.20;;;;;;;18.57;85.54;95495.13;2077592;28;20679;-69
2022/09/14 16:00:33;;;;;;;2.50;0.90;;;;;;;18.51;85.10;95492.25;2078034;28;20308;-70
2022/09/14 16:01:37;;;;;;;1.50;0.80;;;;;;;18.48;86.68;95492.56;2077291;28;20284;-70
2022/09/14 16:02:40;;;;;;;3.97;1.13;;;;;;;18.49;86.64;95478.38;2078000;28;20292;-71
